Time;durP1;ratioP1;P1;durP2;ratioP2;P2;SDS_P1;SDS_P2;PMS_P1;PMS_P2;Temp;Humidity;BMP_temperature;BMP_pressure;BME280_temperature;BME280_humidity;BME280_pressure;Samples;Min_cycle;Max_cycle;Signal;HPM_P1;HPM_P2
2024/02/11 00:00:24;;;;;;;1.85;1.40;;;;;;;21.33;43.80;98530.16;4966124;28;97544;-75
2024/02/11 00:02:51;;;;;;;2.40;1.40;;;;;;;21.36;43.48;98532.63;4970355;28;105783;-75
2024/02/11 00:05:16;;;;;;;2.40;1.45;;;;;;;21.37;43.38;98529.88;4958620;28;96720;-75
2024/02/11 00:07:42;;;;;;;1.42;0.85;;;;;;;21.37;43.44;98531.66;4972097;28;97415;-75
2024/02/11 00:10:09;;;;;;;1.95;1.38;;;;;;;21.38;43.63;98530.72;4972704;28;96774;-75
2024/02/11 00:12:41;;;;;;;2.47;1.55;;;;;;;21.38;43.52;98531.53;4960939;28;97810;-75
2024/02/11 00:15:08;;;;;;;1.83;0.90;;;;;;;21.39;43.55;98537.69;4965664;28;100180;-75
2024/02/11 00:17:35;;;;;;;1.55;0.95;;;;;;;21.38;43.71;98530.72;4966048;28;96836;-75
2024/02/11 00:20:02;;;;;;;2.03;1.00;;;;;;;21.40;43.69;98539.41;4949691;28;97503;-75
2024/02/11 00:22:27;;;;;;;2.13;1.50;;;;;;;21.39;43.56;98538.56;4965289;28;97380;-74
2024/02/11 00:24:55;;;;;;;1.25;0.80;;;;;;;21.40;43.52;98542.06;4957409;28;129008;-75
2024/02/11 00:27:22;;;;;;;2.05;1.25;;;;;;;21.39;43.78;98541.22;4955814;28;99780;-75
2024/02/11 00:29:47;;;;;;;1.95;1.35;;;;;;;21.39;43.70;98538.56;4972791;28;97011;-75
2024/02/11 00:32:13;;;;;;;2.10;0.75;;;;;;;21.39;43.50;98538.56;4983148;28;96903;-75
2024/02/11 00:34:38;;;;;;;1.60;1.42;;;;;;;21.40;43.68;98534.94;4977112;28;100659;-75
2024/02/11 00:37:06;;;;;;;1.85;1.48;;;;;;;21.39;43.46;98527.94;4951447;28;128765;-75
2024/02/11 00:39:35;;;;;;;1.75;1.00;;;;;;;21.41;43.34;98530.50;4963770;28;96798;-75
2024/02/11 00:42:00;;;;;;;1.50;1.23;;;;;;;21.41;43.61;98533.16;4940724;28;96824;-75
2024/02/11 00:44:25;;;;;;;1.73;1.33;;;;;;;21.41;43.56;98528.69;4948307;28;123194;-75
2024/02/11 00:46:51;;;;;;;2.38;1.60;;;;;;;21.41;43.49;98522.56;4966092;28;114555;-75
2024/02/11 00:49:18;;;;;;;2.53;1.65;;;;;;;21.41;43.55;98527.84;4967451;28;111576;-75
2024/02/11 00:51:43;;;;;;;2.42;1.50;;;;;;;21.41;43.38;98528.69;4967881;28;96957;-75
2024/02/11 00:54:09;;;;;;;3.53;2.13;;;;;;;21.41;43.29;98525.19;4970794;28;97481;-75
2024/02/11 00:56:34;;;;;;;2.28;0.88;;;;;;;21.42;43.34;98521.56;4970011;28;98665;-75
2024/02/11 00:59:00;;;;;;;1.98;1.60;;;;;;;21.41;43.29;98526.03;4966415;28;96891;-74
2024/02/11 01:01:25;;;;;;;1.90;1.40;;;;;;;21.41;43.70;98518.09;4959243;28;97245;-75
2024/02/11 01:03:56;;;;;;;2.00;1.45;;;;;;;21.42;43.64;98529.53;4966868;28;97905;-74
2024/02/11 01:06:26;;;;;;;1.67;0.80;;;;;;;21.41;43.35;98526.03;4972058;28;97130;-75
2024/02/11 01:08:52;;;;;;;1.58;1.42;;;;;;;21.41;43.36;98530.50;4954617;28;96892;-75
2024/02/11 01:11:19;;;;;;;1.83;0.90;;;;;;;21.42;43.65;98516.28;4958082;28;97239;-75
2024/02/11 01:13:47;;;;;;;1.67;0.80;;;;;;;21.42;43.34;98513.63;4958921;28;97473;-75
2024/02/11 01:16:12;;;;;;;2.03;0.90;;;;;;;21.42;43.63;98510.97;4971967;28;98006;-75
2024/02/11 01:18:38;;;;;;;2.05;1.50;;;;;;;21.41;43.29;98510.13;4955933;28;96909;-74
2024/02/11 01:21:07;;;;;;;1.95;1.48;;;;;;;21.41;43.49;98507.47;4966286;28;96841;-74
2024/02/11 01:23:32;;;;;;;2.10;1.63;;;;;;;21.42;43.15;98511.81;4959815;28;96759;-75
2024/02/11 01:25:58;;;;;;;2.13;1.40;;;;;;;21.42;43.43;98511.81;4961972;28;97679;-75
2024/02/11 01:28:24;;;;;;;2.00;1.50;;;;;;;21.41;43.44;98512.78;4961188;28;96602;-75
2024/02/11 01:30:49;;;;;;;1.70;0.90;;;;;;;21.41;43.51;98517.25;4967472;28;97070;-75
2024/02/11 01:33:15;;;;;;;2.17;1.60;;;;;;;21.41;43.65;98520.75;4964696;28;96838;-75
2024/02/11 01:35:41;;;;;;;2.80;1.50;;;;;;;21.42;43.41;98522.41;4962597;28;97175;-75
2024/02/11 01:38:10;;;;;;;1.42;0.70;;;;;;;21.42;43.28;98525.06;4968105;28;97812;-75
2024/02/11 01:40:35;;;;;;;1.58;0.88;;;;;;;21.42;43.25;98530.38;4968399;28;96786;-75
2024/02/11 01:43:09;;;;;;;1.63;0.82;;;;;;;21.42;43.15;98524.22;4966463;28;97138;-74
2024/02/11 01:45:35;;;;;;;2.17;1.30;;;;;;;21.42;43.58;98533.03;4958906;28;98499;-75
2024/02/11 01:48:04;;;;;;;1.40;0.82;;;;;;;21.43;43.53;98531.25;4975119;28;96717;-74
2024/02/11 01:50:33;;;;;;;1.92;1.40;;;;;;;21.43;43.35;98517.97;4962011;28;96801;-74
2024/02/11 01:52:59;;;;;;;1.80;1.42;;;;;;;21.42;43.68;98527.72;4960489;28;97191;-75
2024/02/11 01:55:25;;;;;;;1.58;0.90;;;;;;;21.42;43.63;98529.53;4965865;28;97799;-74
2024/02/11 01:57:54;;;;;;;1.98;1.55;;;;;;;21.42;43.28;98533.03;4953456;28;99091;-75
2024/02/11 02:00:19;;;;;;;1.92;1.40;;;;;;;21.42;43.43;98526.88;4964811;28;98755;-74
2024/02/11 02:02:49;;;;;;;2.08;1.83;;;;;;;21.42;43.27;98517.13;4970124;28;97398;-75
2024/02/11 02:05:14;;;;;;;2.22;1.40;;;;;;;21.42;43.68;98518.91;4971367;28;96694;-75
2024/02/11 02:07:40;;;;;;;1.95;1.00;;;;;;;21.43;43.66;98523.28;4969205;28;97755;-75
2024/02/11 02:10:07;;;;;;;2.75;0.90;;;;;;;21.42;43.38;98517.13;4969521;28;96789;-75
2024/02/11 02:12:32;;;;;;;1.60;1.15;;;;;;;21.41;43.43;98512.78;4963731;28;99400;-74
2024/02/11 02:14:58;;;;;;;2.13;1.77;;;;;;;21.41;43.25;98520.75;4965715;28;98125;-75
2024/02/11 02:17:23;;;;;;;2.00;1.40;;;;;;;21.42;43.30;98519.75;4969790;28;96752;-74
2024/02/11 02:19:51;;;;;;;1.45;1.00;;;;;;;21.41;43.30;98509.28;4969053;28;96695;-75
2024/02/11 02:22:18;;;;;;;2.70;1.55;;;;;;;21.42;43.47;98510.97;4958802;28;100182;-74
2024/02/11 02:24:44;;;;;;;1.58;0.80;;;;;;;21.41;43.27;98504.81;4962402;28;97601;-75
2024/02/11 02:27:11;;;;;;;2.38;0.90;;;;;;;21.42;43.38;98516.28;4964870;28;97100;-75
2024/02/11 02:29:36;;;;;;;2.33;1.45;;;;;;;21.42;43.50;98510.97;4968179;28;96782;-74
2024/02/11 02:32:02;;;;;;;1.25;0.73;;;;;;;21.41;43.48;98502.19;4968157;28;99695;-74
2024/02/11 02:34:28;;;;;;;2.42;1.50;;;;;;;21.41;43.57;98496.88;4958149;28;100059;-75
2024/02/11 02:36:54;;;;;;;1.27;0.88;;;;;;;21.42;43.28;98497.72;4963281;28;96925;-74
2024/02/11 02:39:19;;;;;;;1.25;0.70;;;;;;;21.41;43.25;98488.91;4966834;28;96984;-75
2024/02/11 02:41:45;;;;;;;1.73;0.90;;;;;;;21.42;43.90;98495.06;4951222;28;97609;-75
2024/02/11 02:44:10;;;;;;;1.20;0.60;;;;;;;21.41;43.43;98488.91;4966349;28;117536;-74
2024/02/11 02:46:35;;;;;;;1.80;1.52;;;;;;;21.41;43.43;98494.22;4970296;28;96978;-75
2024/02/11 02:49:01;;;;;;;2.00;0.90;;;;;;;21.41;43.43;98499.53;4963300;28;97165;-74
2024/02/11 02:51:26;;;;;;;1.85;1.42;;;;;;;21.42;43.45;98497.72;4970070;28;104540;-75
2024/02/11 02:53:52;;;;;;;1.60;0.90;;;;;;;21.41;43.25;98493.38;4963179;28;97180;-75
2024/02/11 02:56:17;;;;;;;1.88;1.33;;;;;;;21.41;43.35;98494.22;4965874;28;97451;-75
2024/02/11 02:58:43;;;;;;;2.25;1.40;;;;;;;21.42;43.43;98498.53;4955118;28;96823;-75
2024/02/11 03:01:09;;;;;;;2.78;1.73;;;;;;;21.42;43.28;98489.75;4965189;28;97015;-75
2024/02/11 03:03:34;;;;;;;1.77;1.50;;;;;;;21.42;43.27;98487.09;4968037;28;102015;-75
2024/02/11 03:06:01;;;;;;;1.52;0.80;;;;;;;21.42;43.49;98495.06;4962220;28;96788;-75
2024/02/11 03:08:26;;;;;;;2.45;1.33;;;;;;;21.42;43.54;98487.09;4971922;28;96941;-74
2024/02/11 03:10:52;;;;;;;1.83;1.00;;;;;;;21.42;43.57;98487.94;4961978;28;96975;-75
2024/02/11 03:13:17;;;;;;;2.75;1.70;;;;;;;21.41;43.57;98478.31;4963782;28;98705;-75
2024/02/11 03:15:43;;;;;;;2.17;1.60;;;;;;;21.42;43.61;98487.09;4967868;28;97220;-75
2024/02/11 03:18:09;;;;;;;1.73;0.90;;;;;;;21.43;43.16;98483.50;4948513;28;96942;-74
2024/02/11 03:20:35;;;;;;;1.58;0.93;;;;;;;21.42;43.69;98474.69;4969103;28;97424;-74
2024/02/11 03:23:00;;;;;;;1.98;1.70;;;;;;;21.42;43.40;98477.34;4958713;28;97349;-75
2024/02/11 03:25:26;;;;;;;2.40;0.90;;;;;;;21.43;43.33;98478.19;4967439;28;97233;-75
2024/02/11 03:27:54;;;;;;;2.72;1.48;;;;;;;21.42;43.38;98479.97;4970974;28;96898;-75
2024/02/11 03:30:21;;;;;;;2.22;0.93;;;;;;;21.42;43.49;98485.28;4967449;28;97509;-75
2024/02/11 03:32:50;;;;;;;2.45;1.67;;;;;;;21.42;43.34;98484.44;4960538;28;96898;-75
2024/02/11 03:35:16;;;;;;;;;;;;;;;21.35;43.55;98491.13;4967974;28;96899;-75
2024/02/11 03:37:42;;;;;;;1.65;0.90;;;;;;;21.35;43.79;98484.03;4964975;28;96794;-75
2024/02/11 03:40:09;;;;;;;1.63;0.93;;;;;;;21.38;43.61;98481.16;4968105;28;96677;-75
2024/02/11 03:42:38;;;;;;;2.83;0.80;;;;;;;21.39;43.49;98490.84;4964357;28;97222;-75
2024/02/11 03:45:08;;;;;;;;;;;;;;;21.34;43.25;98492.06;4961856;28;96981;-75
2024/02/11 03:47:33;;;;;;;1.75;0.93;;;;;;;21.33;43.80;98493.88;4983734;28;96929;-75
2024/02/11 03:49:59;;;;;;;2.33;1.45;;;;;;;21.36;43.66;98488.38;4966035;28;98934;-74
2024/02/11 03:52:24;;;;;;;2.05;1.00;;;;;;;21.37;43.40;98490.09;4961129;28;112062;-75
2024/02/11 03:54:49;;;;;;;2.47;1.67;;;;;;;21.38;43.66;98494.41;4963834;28;97759;-75
2024/02/11 03:57:15;;;;;;;1.88;1.05;;;;;;;21.38;43.25;98499.72;4967395;28;105056;-74
2024/02/11 03:59:45;;;;;;;2.00;1.08;;;;;;;21.39;43.22;98497.91;4970533;28;112287;-75
2024/02/11 04:02:10;;;;;;;2.67;1.88;;;;;;;21.40;43.49;98502.28;4954377;28;100682;-75
2024/02/11 04:04:38;;;;;;;1.77;0.82;;;;;;;21.40;43.35;98505.78;4956890;28;97317;-75
2024/02/11 04:07:03;;;;;;;1.50;1.00;;;;;;;21.39;43.52;98504.09;4966118;28;96787;-75
2024/02/11 04:09:29;;;;;;;1.65;1.00;;;;;;;21.41;43.62;98509.28;4968113;28;120408;-77
2024/02/11 04:11:58;;;;;;;1.42;0.90;;;;;;;21.40;43.56;98508.41;4944706;28;99691;-75
2024/02/11 04:14:23;;;;;;;2.17;1.83;;;;;;;21.41;43.28;98517.25;4963530;28;96833;-75
2024/02/11 04:16:55;;;;;;;2.28;1.60;;;;;;;21.40;43.59;98505.78;4965810;28;96840;-75
2024/02/11 04:19:25;;;;;;;2.72;1.73;;;;;;;21.40;43.30;98510.22;4963812;28;99958;-75
2024/02/11 04:21:51;;;;;;;1.70;0.90;;;;;;;21.40;43.35;98511.06;4970206;28;96848;-75
2024/02/11 04:24:16;;;;;;;1.40;0.80;;;;;;;21.41;43.61;98509.28;4967559;28;97315;-75
2024/02/11 04:26:42;;;;;;;1.85;1.00;;;;;;;21.41;43.31;98512.78;4969067;28;97017;-75
2024/02/11 04:29:14;;;;;;;2.42;1.55;;;;;;;21.41;43.43;98510.13;4958520;28;100362;-75
2024/02/11 04:31:40;;;;;;;2.15;1.52;;;;;;;21.42;43.60;98510.97;4966006;28;97742;-74
2024/02/11 04:34:08;;;;;;;2.40;1.67;;;;;;;21.41;43.16;98509.28;4961567;28;96700;-74
2024/02/11 04:36:36;;;;;;;2.42;1.50;;;;;;;21.40;43.45;98508.41;4966072;28;97238;-75
2024/02/11 04:39:08;;;;;;;1.90;1.42;;;;;;;21.41;43.57;98510.13;4970313;28;100701;-75
2024/02/11 04:41:37;;;;;;;1.67;1.30;;;;;;;21.41;43.28;98509.28;4961075;28;96850;-75
2024/02/11 04:44:06;;;;;;;1.83;0.90;;;;;;;21.41;43.50;98512.78;4964739;28;96862;-75
2024/02/11 04:46:32;;;;;;;;;;;;;;;21.34;43.62;98511.50;4965511;28;96854;-75
2024/02/11 04:48:58;;;;;;;2.05;1.15;;;;;;;21.35;43.50;98515.84;4964881;28;100692;-75
2024/02/11 04:51:27;;;;;;;3.00;1.90;;;;;;;21.37;43.69;98513.97;4969076;28;97172;-74
2024/02/11 04:53:53;;;;;;;2.13;1.60;;;;;;;21.38;43.36;98518.28;4956662;28;97216;-75
2024/02/11 04:56:18;;;;;;;2.67;1.40;;;;;;;21.39;43.24;98517.34;4968463;28;97386;-75
2024/02/11 04:58:44;;;;;;;2.30;1.75;;;;;;;21.39;43.45;98522.66;4961106;28;116395;-75
2024/02/11 05:01:09;;;;;;;1.70;0.90;;;;;;;21.41;43.34;98525.19;4962325;28;98359;-75
2024/02/11 05:03:35;;;;;;;1.90;1.40;;;;;;;21.39;43.49;98527.94;4958617;28;96783;-75
2024/02/11 05:06:00;;;;;;;1.63;1.10;;;;;;;21.39;43.64;98527.94;4962500;28;98276;-75
2024/02/11 05:08:27;;;;;;;2.17;1.70;;;;;;;21.41;43.18;98541.13;4961424;28;98054;-74
2024/02/11 05:10:53;;;;;;;1.50;0.98;;;;;;;21.41;43.63;98535.81;4972060;28;97245;-75
2024/02/11 05:13:18;;;;;;;2.10;1.40;;;;;;;21.41;43.17;98547.25;4965450;28;96880;-74
2024/02/11 05:15:48;;;;;;;2.45;0.80;;;;;;;21.41;43.50;98552.56;4962680;28;96876;-75
2024/02/11 05:18:18;;;;;;;1.92;0.82;;;;;;;21.41;43.34;98549.91;4963222;28;97398;-75
2024/02/11 05:20:45;;;;;;;1.60;0.90;;;;;;;21.40;43.19;98548.19;4953242;28;100038;-75
2024/02/11 05:23:10;;;;;;;1.60;0.95;;;;;;;21.41;43.22;98560.50;4958063;28;96888;-75
2024/02/11 05:25:38;;;;;;;2.38;1.00;;;;;;;21.41;43.45;98557.88;4971797;28;96790;-75
2024/02/11 05:28:15;;;;;;;1.75;0.90;;;;;;;21.41;43.53;98560.50;4974036;28;98408;-75
2024/02/11 05:30:42;;;;;;;1.63;1.38;;;;;;;21.41;43.51;98563.16;4966908;28;98700;-74
2024/02/11 05:33:16;;;;;;;2.30;1.65;;;;;;;21.41;43.44;98551.72;4951428;28;97024;-75
2024/02/11 05:35:43;;;;;;;2.53;1.00;;;;;;;21.41;43.31;98565.81;4969742;28;97010;-75
2024/02/11 05:38:09;;;;;;;2.25;1.00;;;;;;;21.42;43.56;98569.31;4967951;28;96830;-75
2024/02/11 05:40:36;;;;;;;2.33;1.48;;;;;;;21.42;43.40;98569.31;4947421;28;99417;-75
2024/02/11 05:43:05;;;;;;;2.20;1.98;;;;;;;21.41;43.57;98565.81;4966586;28;96852;-75
2024/02/11 05:45:31;;;;;;;2.10;1.63;;;;;;;21.42;43.50;98574.63;4962350;28;97396;-75
2024/02/11 05:47:56;;;;;;;2.40;1.73;;;;;;;21.42;43.36;98579.91;4969672;28;96686;-75
2024/02/11 05:50:23;;;;;;;3.15;1.65;;;;;;;21.42;43.17;98579.91;4965498;28;97563;-75
2024/02/11 05:52:50;;;;;;;1.60;0.90;;;;;;;21.41;43.30;98581.72;4972514;28;99456;-74
2024/02/11 05:55:16;;;;;;;1.98;1.75;;;;;;;21.41;43.29;98580.88;4970275;28;97356;-75
2024/02/11 05:57:43;;;;;;;1.60;0.88;;;;;;;21.42;43.56;98595.81;4958192;28;98468;-75
2024/02/11 06:00:14;;;;;;;2.15;1.63;;;;;;;21.42;43.56;98594.00;4972258;28;97140;-75
2024/02/11 06:02:44;;;;;;;2.08;0.90;;;;;;;21.42;43.11;98598.47;4972131;28;96694;-75
2024/02/11 06:05:12;;;;;;;1.90;0.90;;;;;;;21.41;43.38;98597.63;4972138;28;96675;-75
2024/02/11 06:07:49;;;;;;;2.40;0.98;;;;;;;21.42;43.58;98606.44;4963025;28;97526;-74
2024/02/11 06:10:16;;;;;;;2.03;0.98;;;;;;;21.41;43.25;98602.94;4965033;28;96973;-75
2024/02/11 06:12:42;;;;;;;1.98;1.75;;;;;;;21.42;43.42;98617.03;4968512;28;96858;-75
2024/02/11 06:15:20;;;;;;;2.15;1.15;;;;;;;21.41;43.58;98620.66;4957889;28;97274;-75
2024/02/11 06:17:48;;;;;;;2.05;1.50;;;;;;;21.41;43.49;98629.47;4966139;28;101001;-74
2024/02/11 06:20:17;;;;;;;1.48;0.88;;;;;;;21.42;43.38;98635.59;4960261;28;97561;-75
2024/02/11 06:22:44;;;;;;;2.42;1.65;;;;;;;21.42;43.60;98631.16;4966900;28;96754;-75
2024/02/11 06:25:11;;;;;;;2.17;1.52;;;;;;;21.42;43.20;98640.91;4958599;28;97788;-74
2024/02/11 06:27:38;;;;;;;1.30;0.82;;;;;;;21.42;43.02;98652.34;4964150;28;97314;-75
2024/02/11 06:30:12;;;;;;;1.90;1.50;;;;;;;21.42;43.53;98654.16;4961027;28;99252;-75
2024/02/11 06:32:42;;;;;;;1.33;0.90;;;;;;;21.42;43.47;98655.00;4958438;28;97222;-74
2024/02/11 06:35:09;;;;;;;1.45;0.70;;;;;;;21.43;43.50;98655.88;4975341;28;97327;-75
2024/02/11 06:37:42;;;;;;;1.75;1.30;;;;;;;21.41;43.35;98669.25;4960306;28;96612;-76
2024/02/11 06:40:15;;;;;;;2.42;1.83;;;;;;;21.42;43.44;98676.22;4960334;28;97751;-76
2024/02/11 06:42:42;;;;;;;2.00;1.00;;;;;;;21.41;43.58;98682.50;4971587;28;96842;-76
2024/02/11 06:45:09;;;;;;;2.55;0.90;;;;;;;21.41;43.60;98690.47;4966799;28;97432;-75
2024/02/11 06:47:36;;;;;;;2.03;1.02;;;;;;;21.42;43.45;98693.94;4961644;28;97490;-75
2024/02/11 06:50:07;;;;;;;2.42;1.80;;;;;;;21.43;43.30;98700.97;4968380;28;97821;-75
2024/02/11 06:52:32;;;;;;;1.83;1.60;;;;;;;21.42;43.18;98697.44;4960780;28;98242;-75
2024/02/11 06:55:09;;;;;;;1.67;0.82;;;;;;;21.42;43.34;98707.22;4966488;28;97338;-75
2024/02/11 06:57:37;;;;;;;1.95;1.00;;;;;;;21.41;43.30;98711.69;4965669;28;97451;-75
2024/02/11 07:00:08;;;;;;;1.73;1.45;;;;;;;21.41;43.34;98711.69;4946690;28;99765;-76
2024/02/11 07:03:44;;;;;;;1.77;0.93;;;;;;;21.41;43.21;98711.69;4963487;28;100588;-76
2024/02/11 07:05:59;;;;;;;1.65;0.90;;;;;;;21.39;43.33;98733.91;4955871;28;98272;-75
2024/02/11 07:08:24;;;;;;;2.65;1.63;;;;;;;21.41;43.54;98740.00;4953058;28;96724;-75
2024/02/11 07:10:50;;;;;;;1.85;1.00;;;;;;;21.41;43.15;98747.97;4957058;28;126508;-76
2024/02/11 07:13:15;;;;;;;1.80;1.55;;;;;;;21.41;43.24;98756.75;4954836;28;97134;-75
2024/02/11 07:15:41;;;;;;;3.03;1.83;;;;;;;21.41;43.45;98762.06;4956980;28;98634;-76
2024/02/11 07:18:06;;;;;;;2.30;1.73;;;;;;;21.41;43.40;98771.81;4949315;28;99505;-75
2024/02/11 07:20:32;;;;;;;2.33;1.42;;;;;;;21.42;43.36;98776.16;4965705;28;97150;-75
2024/02/11 07:22:57;;;;;;;1.88;1.02;;;;;;;21.42;43.30;98778.81;4959429;28;117972;-75
2024/02/11 07:25:22;;;;;;;2.22;0.95;;;;;;;21.41;43.09;98783.28;4970730;28;97111;-75
2024/02/11 07:27:48;;;;;;;1.83;1.15;;;;;;;21.42;43.21;98790.25;4968765;28;123338;-76
2024/02/11 07:30:13;;;;;;;2.50;1.83;;;;;;;21.42;43.23;98800.88;4970572;28;96885;-75
2024/02/11 07:32:42;;;;;;;2.00;1.00;;;;;;;21.42;43.16;98800.88;4968178;28;96820;-75
2024/02/11 07:35:07;;;;;;;2.25;1.17;;;;;;;21.43;43.47;98804.41;4964955;28;96926;-75
2024/02/11 07:37:33;;;;;;;2.67;1.42;;;;;;;21.41;43.53;98806.31;4963946;28;97965;-76
2024/02/11 07:39:58;;;;;;;2.10;1.88;;;;;;;21.42;43.11;98806.19;4959503;28;96754;-75
2024/02/11 07:42:24;;;;;;;2.40;1.60;;;;;;;21.42;43.24;98807.97;4967084;28;99196;-75
2024/02/11 07:44:49;;;;;;;2.63;1.02;;;;;;;21.42;43.35;98807.97;4958949;28;96978;-74
2024/02/11 07:47:15;;;;;;;1.85;1.00;;;;;;;21.41;43.42;98807.16;4947363;28;122784;-75
2024/02/11 07:49:41;;;;;;;2.80;1.52;;;;;;;21.42;43.60;98813.28;4947830;28;99432;-75
2024/02/11 07:52:06;;;;;;;2.10;1.77;;;;;;;21.42;43.20;98807.97;4932181;28;98136;-76
2024/02/11 07:54:33;;;;;;;2.28;1.65;;;;;;;21.41;43.36;98815.09;4960033;28;110587;-76
2024/02/11 07:56:59;;;;;;;1.77;1.55;;;;;;;21.43;43.37;98815.84;4959150;28;99131;-76
2024/02/11 07:59:24;;;;;;;2.28;1.67;;;;;;;21.42;43.25;98814.13;4963443;28;97926;-75
2024/02/11 08:01:49;;;;;;;1.92;1.13;;;;;;;21.42;43.17;98819.44;4962198;28;98352;-76
2024/02/11 08:04:16;;;;;;;1.70;1.10;;;;;;;21.42;43.43;98822.09;4962475;28;97559;-75
2024/02/11 08:06:43;;;;;;;2.15;1.80;;;;;;;21.43;43.10;98830.91;4961719;28;97664;-75
2024/02/11 08:09:09;;;;;;;2.45;1.40;;;;;;;21.42;43.38;98838.00;4962896;28;97601;-75
2024/02/11 08:11:35;;;;;;;1.92;1.02;;;;;;;21.42;43.31;98835.34;4965116;28;97480;-75
2024/02/11 08:14:01;;;;;;;2.05;1.23;;;;;;;21.43;43.41;98844.19;4962735;28;96898;-75
2024/02/11 08:16:26;;;;;;;1.63;0.90;;;;;;;21.43;43.29;98846.81;4956954;28;96882;-75
2024/02/11 08:18:56;;;;;;;1.33;0.80;;;;;;;21.43;43.57;98844.19;4957047;28;97353;-76
2024/02/11 08:21:21;;;;;;;3.38;1.08;;;;;;;21.42;43.53;98848.59;4966355;28;97127;-75
2024/02/11 08:23:47;;;;;;;2.90;1.60;;;;;;;21.43;43.23;98860.09;4958795;28;97331;-76
2024/02/11 08:26:12;;;;;;;3.22;1.40;;;;;;;21.43;43.26;98860.94;4961013;28;97489;-76
2024/02/11 08:28:38;;;;;;;1.75;0.93;;;;;;;21.43;43.17;98868.03;4967839;28;126136;-76
2024/02/11 08:31:04;;;;;;;1.98;1.45;;;;;;;21.42;43.37;98869.81;4969502;28;99303;-75
2024/02/11 08:33:29;;;;;;;2.00;1.42;;;;;;;21.43;43.50;98868.88;4967533;28;96680;-75
2024/02/11 08:35:56;;;;;;;1.20;0.80;;;;;;;21.42;43.30;98869.81;4968149;28;111599;-75
2024/02/11 08:38:21;;;;;;;1.60;0.90;;;;;;;21.42;43.23;98868.97;4969549;28;96666;-75
2024/02/11 08:40:47;;;;;;;1.63;0.85;;;;;;;21.42;43.36;98867.16;4967569;28;96821;-76
2024/02/11 08:43:12;;;;;;;1.90;1.33;;;;;;;21.42;43.35;98866.31;4969445;28;96830;-75
2024/02/11 08:45:37;;;;;;;2.33;1.70;;;;;;;21.42;43.37;98880.44;4969020;28;96977;-75
2024/02/11 08:48:03;;;;;;;1.92;0.90;;;;;;;21.43;43.53;98881.31;4968122;28;113486;-76
2024/02/11 08:50:29;;;;;;;2.00;0.90;;;;;;;21.42;43.21;98883.09;4968322;28;96968;-75
2024/02/11 08:52:55;;;;;;;2.05;0.90;;;;;;;21.42;43.36;98872.47;4968956;28;97045;-76
2024/02/11 08:55:20;;;;;;;2.30;1.63;;;;;;;21.42;43.56;98872.47;4967759;28;100451;-76
2024/02/11 08:57:47;;;;;;;3.03;0.95;;;;;;;21.42;43.53;98872.47;4965301;28;97295;-75
2024/02/11 09:00:18;;;;;;;1.63;0.90;;;;;;;21.43;43.28;98878.66;4957133;28;96660;-76
2024/02/11 09:02:44;;;;;;;2.13;0.85;;;;;;;21.42;43.17;98880.44;4958154;28;96945;-75
2024/02/11 09:05:09;;;;;;;1.60;1.00;;;;;;;21.43;43.40;98881.31;4965164;28;97510;-75
2024/02/11 09:07:36;;;;;;;1.98;0.90;;;;;;;21.43;43.32;98891.91;4963525;28;98261;-76
2024/02/11 09:10:02;;;;;;;3.05;1.15;;;;;;;21.43;43.22;98891.91;4964037;28;97604;-75
2024/02/11 09:12:29;;;;;;;2.55;1.33;;;;;;;21.44;43.26;98901.56;4962520;28;96933;-76
2024/02/11 09:14:54;;;;;;;1.65;1.00;;;;;;;21.43;43.35;98892.75;4962596;28;96689;-75
2024/02/11 09:17:20;;;;;;;3.00;1.52;;;;;;;21.44;43.16;98894.47;4969107;28;97174;-76
2024/02/11 09:19:46;;;;;;;2.00;0.90;;;;;;;21.43;43.17;98900.72;4969109;28;97185;-76
2024/02/11 09:22:12;;;;;;;1.75;1.52;;;;;;;21.43;43.32;98902.53;4964750;28;97054;-74
2024/02/11 09:24:41;;;;;;;1.70;0.82;;;;;;;21.44;43.21;98910.38;4955393;28;96854;-75
2024/02/11 09:27:10;;;;;;;2.50;1.00;;;;;;;21.43;43.48;98911.31;4965902;28;98069;-76
2024/02/11 09:29:36;;;;;;;2.55;1.65;;;;;;;21.43;43.27;98910.47;4963955;28;97284;-75
2024/02/11 09:32:03;;;;;;;2.40;1.60;;;;;;;21.44;43.39;98910.38;4957067;28;96914;-75
2024/02/11 09:34:28;;;;;;;2.63;0.85;;;;;;;21.43;43.26;98908.66;4943077;28;98122;-76
2024/02/11 09:36:53;;;;;;;2.08;1.60;;;;;;;21.44;43.30;98914.81;4968730;28;97222;-75
2024/02/11 09:39:19;;;;;;;2.20;1.60;;;;;;;21.44;43.54;98912.16;4968692;28;101284;-76
2024/02/11 09:41:45;;;;;;;1.88;1.05;;;;;;;21.43;43.09;98911.31;4968239;28;96869;-75
2024/02/11 09:44:13;;;;;;;2.25;0.98;;;;;;;21.44;43.17;98914.81;4948418;28;96753;-75
2024/02/11 09:46:40;;;;;;;2.47;1.08;;;;;;;21.43;43.47;98924.59;4963814;28;97496;-75
2024/02/11 09:49:17;;;;;;;2.30;1.50;;;;;;;21.43;43.16;98926.41;4968283;28;96805;-75
2024/02/11 09:51:45;;;;;;;2.30;1.10;;;;;;;21.44;43.36;98933.38;4949705;28;97384;-75
2024/02/11 09:54:12;;;;;;;1.83;1.00;;;;;;;21.43;43.12;98935.19;4967171;28;99994;-75
2024/02/11 09:56:38;;;;;;;2.10;1.00;;;;;;;21.43;43.22;98932.53;4969320;28;96793;-76
2024/02/11 09:59:03;;;;;;;2.28;1.70;;;;;;;21.44;43.13;98936.03;4953515;28;96786;-74
2024/02/11 10:01:31;;;;;;;2.10;1.10;;;;;;;21.44;42.97;98926.31;4944443;28;97140;-76
2024/02/11 10:03:59;;;;;;;1.90;0.90;;;;;;;21.43;43.27;98931.69;4965681;28;97289;-76
2024/02/11 10:06:32;;;;;;;2.95;1.67;;;;;;;21.43;43.07;98931.69;4962941;28;97314;-76
2024/02/11 10:08:57;;;;;;;2.45;1.58;;;;;;;21.43;43.06;98940.50;4954696;28;96881;-75
2024/02/11 10:11:25;;;;;;;1.90;1.40;;;;;;;21.44;43.13;98949.28;4964259;28;97043;-75
2024/02/11 10:13:51;;;;;;;2.17;0.98;;;;;;;21.43;43.42;98948.44;4948929;28;99396;-76
2024/02/11 10:16:16;;;;;;;2.40;0.90;;;;;;;21.44;43.10;98944.00;4964547;28;99361;-76
2024/02/11 10:18:42;;;;;;;2.50;1.60;;;;;;;21.44;43.16;98949.28;4962981;28;97050;-75
2024/02/11 10:21:12;;;;;;;1.67;0.98;;;;;;;21.43;43.33;98953.75;4968137;28;107615;-75
2024/02/11 10:23:40;;;;;;;1.80;1.10;;;;;;;21.44;43.25;98965.22;4958202;28;98651;-76
2024/02/11 10:26:07;;;;;;;;;;;;;;;21.37;43.20;98967.41;4961420;28;97427;-75
2024/02/11 10:28:37;;;;;;;2.55;1.50;;;;;;;21.37;43.19;98970.06;4972185;28;97378;-76
2024/02/11 10:31:03;;;;;;;3.40;1.00;;;;;;;21.40;43.09;98963.69;4970639;28;97138;-75
2024/02/11 10:33:29;;;;;;;3.28;1.83;;;;;;;21.41;43.33;98965.44;4970017;28;97519;-76
2024/02/11 10:35:56;;;;;;;2.65;1.70;;;;;;;21.42;43.17;98978.56;4964451;28;97256;-76
2024/02/11 10:38:21;;;;;;;2.85;1.40;;;;;;;21.42;43.27;98972.41;4961804;28;96786;-75
2024/02/11 10:40:47;;;;;;;2.00;1.30;;;;;;;21.42;43.47;98975.91;4965439;28;96757;-76
2024/02/11 10:43:15;;;;;;;2.05;1.08;;;;;;;21.42;43.42;98978.56;4971165;28;97597;-74
2024/02/11 10:45:40;;;;;;;2.40;1.75;;;;;;;21.43;43.00;98976.78;4966691;28;99619;-75
2024/02/11 10:48:06;;;;;;;3.35;1.23;;;;;;;21.43;43.12;98984.75;4963245;28;97518;-76
2024/02/11 10:50:32;;;;;;;2.17;1.00;;;;;;;21.44;43.28;98989.06;4965118;28;98939;-76
2024/02/11 10:53:03;;;;;;;3.08;1.60;;;;;;;21.44;43.13;98992.59;4958485;28;96866;-76
2024/02/11 10:55:32;;;;;;;3.28;1.90;;;;;;;21.43;43.53;98995.34;4959831;28;100010;-75
2024/02/11 10:58:00;;;;;;;2.22;0.90;;;;;;;21.43;43.21;98990.88;4970965;28;97160;-75
2024/02/11 11:00:27;;;;;;;1.88;1.00;;;;;;;21.42;43.22;98983.88;4963277;28;96856;-76
2024/02/11 11:02:57;;;;;;;2.50;1.10;;;;;;;21.43;43.12;98985.59;4961722;28;96724;-76
2024/02/11 11:05:26;;;;;;;3.10;1.05;;;;;;;21.44;43.30;98989.06;4964807;28;98518;-76
2024/02/11 11:07:55;;;;;;;2.90;1.90;;;;;;;21.44;43.08;98994.38;4960114;28;96842;-75
2024/02/11 11:10:20;;;;;;;2.78;1.30;;;;;;;21.44;42.97;98994.38;4957653;28;97778;-75
2024/02/11 11:12:53;;;;;;;2.20;1.02;;;;;;;21.43;43.35;98996.19;4960763;28;98108;-76
2024/02/11 11:15:22;;;;;;;3.50;1.77;;;;;;;21.43;43.24;98982.09;4967866;28;97398;-75
2024/02/11 11:17:48;;;;;;;3.33;1.70;;;;;;;21.44;43.23;98987.31;4963692;28;96625;-75
2024/02/11 11:20:13;;;;;;;1.63;1.00;;;;;;;21.43;43.14;98990.88;4964204;28;97288;-75
2024/02/11 11:22:39;;;;;;;2.15;1.55;;;;;;;21.44;43.08;98984.66;4962553;28;97416;-76
2024/02/11 11:25:11;;;;;;;2.13;1.67;;;;;;;21.44;43.07;98991.72;4968245;28;99410;-75
2024/02/11 11:27:37;;;;;;;3.45;1.30;;;;;;;21.43;43.26;98990.88;4937098;28;98305;-75
2024/02/11 11:30:06;;;;;;;2.50;1.67;;;;;;;21.44;43.27;98978.47;4949714;28;97294;-75
2024/02/11 11:32:33;;;;;;;;;;;;;;;21.37;43.37;98978.03;4949343;28;97974;-74